Time;durP1;ratioP1;P1;durP2;ratioP2;P2;SDS_P1;SDS_P2;PMS_P1;PMS_P2;Temp;Humidity;BMP_temperature;BMP_pressure;BME280_temperature;BME280_humidity;BME280_pressure;Samples;Min_cycle;Max_cycle;Signal;HPM_P1;HPM_P2
2022/01/18 00:01:27;;;;;;;46.20;17.00;;;;;;;6.48;69.91;99077.38;5975213;23;20266;-84
2022/01/18 00:03:52;;;;;;;39.58;14.07;;;;;;;6.37;70.88;99067.38;6024235;23;20585;-84
2022/01/18 00:06:18;;;;;;;50.22;17.35;;;;;;;6.34;70.08;99075.47;6009280;23;20246;-84
2022/01/18 00:08:43;;;;;;;72.78;18.80;;;;;;;6.37;70.16;99075.16;6033571;23;20265;-85
2022/01/18 00:11:09;;;;;;;58.97;16.48;;;;;;;6.41;70.65;99078.19;5999697;23;20174;-85
2022/01/18 00:13:41;;;;;;;42.55;16.38;;;;;;;6.41;70.31;99071.25;6010224;23;20227;-85
2022/01/18 00:16:13;;;;;;;37.58;16.08;;;;;;;6.38;70.58;99071.59;6034837;23;20600;-84
2022/01/18 00:18:39;;;;;;;61.13;18.65;;;;;;;6.35;70.55;99082.28;5977236;23;20182;-84
2022/01/18 00:23:38;;;;;;;32.33;13.38;;;;;;;6.22;70.70;99076.84;6000650;23;20163;-85
2022/01/18 00:26:06;;;;;;;31.15;12.65;;;;;;;6.25;70.94;99084.28;6000109;23;20260;-84
2022/01/18 00:28:32;;;;;;;32.20;13.30;;;;;;;6.32;70.92;99078.28;6000484;23;20238;-85
2022/01/18 00:36:01;;;;;;;70.50;16.00;;;;;;;6.33;71.03;99081.66;6035781;23;20271;-85
2022/01/18 00:38:43;;;;;;;31.13;13.93;;;;;;;6.34;71.19;99081.47;5976849;23;20501;-85
2022/01/18 00:41:08;;;;;;;29.85;13.15;;;;;;;6.38;71.10;99092.31;6036949;23;20750;-85
2022/01/18 00:43:33;;;;;;;49.83;13.73;;;;;;;6.33;70.57;99092.00;5975855;23;20151;-85
2022/01/18 00:45:59;;;;;;;50.00;14.27;;;;;;;6.32;71.14;99086.03;5999830;23;20186;-84
2022/01/18 00:48:24;;;;;;;55.10;15.98;;;;;;;6.31;70.87;99081.81;5999887;23;20617;-85
2022/01/18 00:50:50;;;;;;;41.55;13.10;;;;;;;6.28;71.10;99087.31;5998569;23;20186;-84
2022/01/18 00:53:18;;;;;;;58.63;15.13;;;;;;;6.34;71.02;99091.00;5999942;23;20530;-85
2022/01/18 00:55:54;;;;;;;55.13;15.07;;;;;;;6.26;71.07;99083.31;6000075;23;20192;-84
2022/01/18 00:58:19;;;;;;;64.93;16.25;;;;;;;6.27;70.93;99090.91;5978237;23;20089;-85
2022/01/18 01:00:44;;;;;;;51.38;14.70;;;;;;;6.27;71.45;99095.25;6032483;23;20182;-84
2022/01/18 01:03:10;;;;;;;32.10;12.05;;;;;;;6.32;71.15;99095.56;5975758;23;20217;-84
2022/01/18 01:05:35;;;;;;;41.55;14.35;;;;;;;6.28;71.33;99096.88;6009201;23;20179;-84
2022/01/18 01:08:01;;;;;;;72.45;17.58;;;;;;;6.34;71.22;99089.25;5999626;23;20238;-85
2022/01/18 01:10:27;;;;;;;47.03;15.13;;;;;;;6.33;70.89;99087.63;5999323;23;20175;-84
2022/01/18 01:12:55;;;;;;;54.30;13.38;;;;;;;6.27;71.20;99079.72;5999307;23;20156;-84
2022/01/18 01:15:24;;;;;;;29.48;12.98;;;;;;;6.37;70.94;99094.09;5976162;23;20163;-85
2022/01/18 01:18:20;;;;;;;45.88;13.65;;;;;;;6.44;71.00;99096.78;5976854;23;20269;-85
2022/01/18 01:42:55;;;;;;;37.05;12.35;;;;;;;6.24;71.23;99101.59;6022895;23;20262;-84
2022/01/18 01:44:56;;;;;;;42.00;13.93;;;;;;;6.27;70.80;99101.25;6000185;23;20171;-84
2022/01/18 01:47:32;;;;;;;39.70;13.10;;;;;;;6.33;71.15;99099.75;6008441;23;20170;-84
2022/01/18 01:49:57;;;;;;;90.18;18.40;;;;;;;6.34;70.79;99102.19;5975625;23;20317;-84
2022/01/18 01:52:23;;;;;;;29.95;12.48;;;;;;;6.38;70.59;99102.66;5975721;23;20632;-84
2022/01/18 01:54:48;;;;;;;46.22;14.38;;;;;;;6.35;70.92;99102.97;5975791;23;20332;-84
2022/01/18 01:57:14;;;;;;;86.05;19.63;;;;;;;6.35;71.00;99108.94;5999248;23;20174;-84
2022/01/18 01:59:40;;;;;;;38.78;15.30;;;;;;;6.44;70.90;99107.13;5972013;23;20210;-84
2022/01/18 02:02:06;;;;;;;32.70;14.38;;;;;;;6.58;70.64;99103.03;6008195;23;20197;-85
2022/01/18 02:04:31;;;;;;;44.80;13.70;;;;;;;6.43;70.96;99089.22;5974313;23;20178;-84
2022/01/18 02:06:56;;;;;;;74.65;16.45;;;;;;;6.53;70.95;99100.94;6032938;23;20210;-85
2022/01/18 02:09:22;;;;;;;85.65;16.70;;;;;;;6.50;70.77;99098.69;5975091;23;20481;-85
2022/01/18 02:11:49;;;;;;;80.57;15.82;;;;;;;6.53;70.54;99095.78;6033268;23;20559;-84
2022/01/18 02:14:19;;;;;;;43.10;14.43;;;;;;;6.55;70.27;99087.84;5999986;23;20330;-84
2022/01/18 02:22:14;;;;;;;35.17;12.75;;;;;;;6.64;69.82;99080.84;6023520;23;20981;-85
2022/01/18 02:24:39;;;;;;;68.55;15.38;;;;;;;6.57;69.23;99076.34;6009450;23;20373;-85
2022/01/18 02:27:05;;;;;;;24.50;11.25;;;;;;;6.45;70.20;99077.69;5975687;23;20281;-84
2022/01/18 02:29:31;;;;;;;25.95;11.85;;;;;;;6.42;70.14;99072.84;5975593;23;20352;-85
2022/01/18 02:31:56;;;;;;;32.05;11.80;;;;;;;6.40;70.51;99080.00;6009273;23;20361;-85
2022/01/18 02:34:22;;;;;;;32.45;10.82;;;;;;;6.28;70.70;99081.34;6009166;23;20555;-84
2022/01/18 02:36:48;;;;;;;36.55;12.55;;;;;;;6.33;70.80;99079.06;5997387;23;20176;-84
2022/01/18 02:39:18;;;;;;;34.65;11.73;;;;;;;6.28;70.82;99081.34;5974718;23;20182;-85
2022/01/18 02:41:43;;;;;;;36.40;12.27;;;;;;;6.30;70.72;99071.63;6023644;23;20581;-84
2022/01/18 02:44:12;;;;;;;58.10;13.18;;;;;;;6.24;71.09;99083.47;5975738;23;20238;-85
2022/01/18 02:46:38;;;;;;;43.50;12.70;;;;;;;6.35;70.69;99084.88;5975727;23;20183;-85
2022/01/18 02:49:05;;;;;;;40.83;12.05;;;;;;;6.34;71.27;99065.97;6027797;23;20164;-84
2022/01/18 02:51:30;;;;;;;110.15;17.52;;;;;;;6.29;70.69;99067.44;5974919;23;20646;-85
2022/01/18 02:53:57;;;;;;;38.85;12.07;;;;;;;6.30;71.02;99079.41;5975119;23;20178;-85
2022/01/18 02:56:24;;;;;;;48.92;14.63;;;;;;;6.26;70.96;99075.56;6059537;23;20715;-84
2022/01/18 02:58:49;;;;;;;46.80;14.07;;;;;;;6.24;71.27;99085.22;5975094;23;20207;-84
2022/01/18 03:04:19;;;;;;;30.52;11.27;;;;;;;6.26;71.21;99078.13;6029309;23;20179;-84
2022/01/18 03:06:44;;;;;;;33.97;11.38;;;;;;;6.28;71.46;99084.75;5974835;23;20191;-84
2022/01/18 03:09:10;;;;;;;33.92;13.00;;;;;;;6.29;71.08;99077.78;5975028;23;20143;-84
2022/01/18 03:11:35;;;;;;;35.30;12.57;;;;;;;6.14;70.81;99070.75;5975653;23;20182;-84
2022/01/18 03:14:01;;;;;;;71.90;17.63;;;;;;;6.12;70.73;99083.03;6008736;23;20198;-84
2022/01/18 03:16:27;;;;;;;34.33;13.27;;;;;;;6.09;71.25;99075.59;5975650;23;20140;-84
2022/01/18 03:18:52;;;;;;;34.53;11.80;;;;;;;6.17;71.28;99088.50;6008216;23;20167;-84
2022/01/18 03:21:17;;;;;;;48.58;14.15;;;;;;;6.26;70.85;99091.06;6003885;23;20182;-84
2022/01/18 03:23:50;;;;;;;43.38;14.82;;;;;;;6.22;70.79;99092.38;6027629;23;20251;-84
2022/01/18 03:26:16;;;;;;;112.28;21.63;;;;;;;6.15;71.19;99098.22;6028024;23;20283;-84
2022/01/18 03:28:42;;;;;;;43.90;14.13;;;;;;;6.15;71.42;99093.06;6003878;23;20119;-84
2022/01/18 03:31:07;;;;;;;42.45;15.75;;;;;;;6.12;71.30;99088.22;5970413;23;20264;-84
2022/01/18 03:33:34;;;;;;;82.38;18.42;;;;;;;6.07;71.58;99084.53;6027576;23;20392;-84
2022/01/18 03:35:59;;;;;;;55.45;16.83;;;;;;;6.09;71.75;99090.31;6002987;23;20136;-84
2022/01/18 03:38:29;;;;;;;63.67;14.25;;;;;;;6.08;71.42;99084.31;5970331;23;20197;-84
2022/01/18 03:41:00;;;;;;;58.88;13.32;;;;;;;6.11;71.68;99084.00;6027754;23;20147;-84
2022/01/18 03:43:26;;;;;;;56.85;14.43;;;;;;;6.07;71.50;99074.97;6003816;23;20182;-84
2022/01/18 03:45:54;;;;;;;113.07;18.05;;;;;;;6.09;71.27;99078.19;6003955;23;20174;-84
2022/01/18 03:48:33;;;;;;;84.25;18.05;;;;;;;6.11;71.22;99084.00;6002376;23;20666;-83
2022/01/18 03:51:00;;;;;;;66.72;15.85;;;;;;;6.14;71.84;99088.03;6024553;23;20245;-84
2022/01/18 03:53:26;;;;;;;44.83;12.02;;;;;;;6.13;71.44;99079.47;6018026;23;20130;-84
2022/01/18 03:55:52;;;;;;;55.50;13.70;;;;;;;6.21;71.31;99090.78;5970334;23;20539;-84
2022/01/18 03:58:18;;;;;;;52.90;14.35;;;;;;;6.17;71.67;99088.50;6017867;23;20189;-84
2022/01/18 04:00:43;;;;;;;40.00;13.52;;;;;;;6.18;71.17;99087.53;6018239;23;20090;-84
2022/01/18 04:03:08;;;;;;;43.70;13.85;;;;;;;6.19;71.31;99085.75;6029441;23;20625;-84
2022/01/18 04:05:34;;;;;;;48.63;13.68;;;;;;;6.22;71.27;99100.94;5971261;23;20170;-84
2022/01/18 04:07:59;;;;;;;32.83;12.77;;;;;;;6.22;71.79;99092.38;6005413;23;20336;-84
2022/01/18 04:10:25;;;;;;;38.20;14.18;;;;;;;6.16;71.46;99081.72;6005161;23;20170;-84
2022/01/18 04:12:50;;;;;;;46.85;14.48;;;;;;;6.22;71.36;99100.13;5972374;23;20177;-84
2022/01/18 04:15:17;;;;;;;39.30;14.18;;;;;;;6.36;71.18;99104.59;5972037;23;20182;-84
2022/01/18 04:30:51;;;;;;;49.67;15.45;;;;;;;6.44;70.95;99098.56;5995467;23;20229;-84
2022/01/18 04:33:16;;;;;;;46.63;14.20;;;;;;;6.43;70.47;99094.38;5972061;23;20156;-84
2022/01/18 04:35:42;;;;;;;32.78;11.63;;;;;;;6.40;70.99;99102.47;6004524;23;20163;-84
2022/01/18 04:38:07;;;;;;;34.22;14.18;;;;;;;6.37;70.99;99101.03;6005146;23;20166;-84
2022/01/18 04:40:33;;;;;;;27.95;12.52;;;;;;;6.33;71.22;99095.38;5971637;23;20217;-84
2022/01/18 05:34:29;;;;;;;25.45;10.63;;;;;;;6.29;70.41;99129.50;6104473;23;20333;-83
2022/01/18 05:36:54;;;;;;;24.52;10.75;;;;;;;6.35;70.83;99128.84;6002810;23;20325;-83
2022/01/18 05:39:21;;;;;;;31.13;12.88;;;;;;;6.32;70.84;99131.78;6017905;23;20542;-83
2022/01/18 05:41:47;;;;;;;31.50;12.70;;;;;;;6.29;70.44;99124.34;6018366;23;20143;-83
2022/01/18 05:44:12;;;;;;;33.13;12.82;;;;;;;6.30;70.74;99119.00;5993894;23;20194;-83
2022/01/18 05:46:37;;;;;;;25.27;11.80;;;;;;;6.30;71.21;99118.19;5970375;23;20223;-83
2022/01/18 05:49:03;;;;;;;25.77;11.07;;;;;;;6.24;70.93;99129.22;5999226;23;20333;-83
2022/01/18 05:51:29;;;;;;;26.92;11.07;;;;;;;6.26;70.88;99135.03;5970251;23;20547;-84
2022/01/18 05:53:54;;;;;;;23.80;10.52;;;;;;;6.36;71.29;99133.06;6004221;23;20152;-84
2022/01/18 05:56:19;;;;;;;33.03;13.75;;;;;;;6.21;71.97;99132.16;5970146;23;20242;-83
2022/01/18 05:58:45;;;;;;;38.13;15.63;;;;;;;6.32;71.54;99129.19;6027374;23;20605;-83
2022/01/18 06:01:21;;;;;;;42.35;16.85;;;;;;;6.37;71.08;99129.47;6026642;23;20547;-84
2022/01/18 06:04:05;;;;;;;39.88;16.92;;;;;;;6.52;71.45;99147.69;6003994;23;20242;-84
2022/01/18 06:09:14;;;;;;;57.28;16.83;;;;;;;6.47;71.29;99152.56;6016685;23;20170;-83
2022/01/18 06:11:40;;;;;;;58.85;20.75;;;;;;;6.33;70.92;99167.81;6026822;23;20178;-84
2022/01/18 06:14:05;;;;;;;38.15;16.92;;;;;;;6.28;70.89;99166.72;6002849;23;20178;-84
2022/01/18 06:16:31;;;;;;;36.08;15.77;;;;;;;6.31;71.11;99166.38;5993355;23;20119;-84
2022/01/18 06:18:56;;;;;;;39.20;15.20;;;;;;;6.32;71.07;99166.22;6025878;23;20178;-83
2022/01/18 06:21:22;;;;;;;36.85;15.27;;;;;;;6.29;71.38;99165.72;6002161;23;20360;-82
2022/01/18 06:23:47;;;;;;;32.35;13.75;;;;;;;6.28;71.07;99166.72;5992578;23;20534;-83
2022/01/18 06:26:15;;;;;;;32.63;13.75;;;;;;;6.46;71.04;99167.31;5968787;23;20178;-83
2022/01/18 06:28:41;;;;;;;35.22;10.13;;;;;;;6.50;70.31;99163.41;6002505;23;20139;-83
2022/01/18 06:31:07;;;;;;;44.22;10.23;;;;;;;6.46;70.23;99166.47;6016571;23;20177;-83
2022/01/18 06:33:32;;;;;;;31.55;10.57;;;;;;;6.43;70.29;99165.03;6026233;23;20272;-83
2022/01/18 06:35:57;;;;;;;37.75;12.00;;;;;;;6.46;70.09;99167.31;6028387;23;20178;-82
2022/01/18 06:38:23;;;;;;;45.67;10.45;;;;;;;6.44;70.32;99169.22;6002916;23;20158;-82
2022/01/18 06:40:49;;;;;;;22.35;9.45;;;;;;;6.37;70.53;99173.47;5969841;23;20309;-83
2022/01/18 06:43:15;;;;;;;26.98;10.60;;;;;;;6.35;70.47;99178.00;6027320;23;20293;-82
2022/01/18 06:45:41;;;;;;;23.25;8.32;;;;;;;6.28;70.49;99174.47;5993545;23;20273;-83
2022/01/18 06:48:07;;;;;;;22.02;8.93;;;;;;;6.21;70.54;99178.72;5992999;23;20519;-82
2022/01/18 06:50:33;;;;;;;19.13;9.20;;;;;;;6.17;70.50;99176.44;5968592;23;20647;-82
2022/01/18 06:52:59;;;;;;;20.17;8.52;;;;;;;6.15;71.03;99175.00;6003286;23;20157;-83
2022/01/18 06:55:25;;;;;;;25.88;9.15;;;;;;;6.16;71.43;99174.81;6002976;23;20227;-82
2022/01/18 06:57:51;;;;;;;24.63;9.93;;;;;;;6.16;71.38;99172.25;6003462;23;20178;-83
2022/01/18 07:00:16;;;;;;;38.13;13.63;;;;;;;6.15;70.87;99175.81;6027065;23;20264;-83
2022/01/18 07:02:42;;;;;;;26.90;12.98;;;;;;;6.15;70.98;99181.00;6003229;23;20267;-83
2022/01/18 07:05:08;;;;;;;25.55;11.05;;;;;;;6.26;71.31;99184.19;6026854;23;20604;-83
2022/01/18 07:07:33;;;;;;;27.35;12.43;;;;;;;6.38;70.67;99194.00;6027130;23;20248;-82
2022/01/18 07:09:59;;;;;;;29.10;11.85;;;;;;;6.32;70.53;99181.75;6000320;23;20574;-82
2022/01/18 07:12:25;;;;;;;31.30;12.55;;;;;;;6.34;70.39;99174.63;6029753;23;20266;-83
2022/01/18 07:14:51;;;;;;;29.98;12.55;;;;;;;6.49;70.80;99192.81;6003236;23;20642;-82
2022/01/18 07:17:16;;;;;;;30.63;12.27;;;;;;;6.48;70.75;99201.56;6017105;23;20258;-83
2022/01/18 07:19:42;;;;;;;26.27;12.07;;;;;;;6.53;70.99;99204.47;5969655;23;20269;-83
2022/01/18 07:22:07;;;;;;;24.45;11.10;;;;;;;6.45;70.60;99206.28;6026419;23;20219;-82
2022/01/18 07:27:08;;;;;;;24.58;10.93;;;;;;;6.35;71.17;99209.06;5993745;23;20523;-82
2022/01/18 07:29:34;;;;;;;24.05;9.88;;;;;;;6.36;71.29;99210.69;6017676;23;20245;-81
2022/01/18 07:32:00;;;;;;;24.73;10.23;;;;;;;6.33;71.06;99204.03;6027980;23;20169;-85
2022/01/18 07:34:26;;;;;;;18.45;9.27;;;;;;;6.33;71.58;99206.63;5970478;23;20609;-85
2022/01/18 07:36:52;;;;;;;31.50;11.50;;;;;;;6.35;71.10;99215.03;5995579;23;20169;-85
2022/01/18 07:39:17;;;;;;;26.55;12.10;;;;;;;6.33;71.17;99211.81;6005496;23;20661;-85
2022/01/18 07:41:43;;;;;;;36.53;14.73;;;;;;;6.34;71.15;99215.19;5971571;23;20148;-84
2022/01/18 07:44:08;;;;;;;41.65;17.63;;;;;;;6.38;71.60;99213.91;6029092;23;20210;-85
2022/01/18 07:46:33;;;;;;;38.17;20.83;;;;;;;6.38;71.56;99213.91;6019817;23;20269;-85
2022/01/18 07:48:59;;;;;;;69.07;27.30;;;;;;;6.37;70.79;99215.69;6001163;23;20279;-85
2022/01/18 07:51:24;;;;;;;42.92;20.73;;;;;;;6.37;71.41;99218.28;6003651;23;20178;-85
2022/01/18 07:53:49;;;;;;;65.10;26.05;;;;;;;6.36;70.99;99216.66;5971557;23;20270;-82
2022/01/18 07:56:15;;;;;;;46.97;23.60;;;;;;;6.34;70.82;99210.84;6004041;23;20170;-83
2022/01/18 07:58:40;;;;;;;41.08;18.20;;;;;;;6.31;71.19;99212.97;6028299;23;20178;-83
2022/01/18 08:01:06;;;;;;;36.53;17.02;;;;;;;6.30;71.34;99204.38;5994382;23;20241;-82
2022/01/18 08:03:33;;;;;;;30.50;16.45;;;;;;;6.35;71.33;99201.28;5970539;23;20216;-82
2022/01/18 08:05:59;;;;;;;39.80;17.20;;;;;;;6.39;71.26;99210.31;6005045;23;20598;-82
2022/01/18 08:08:26;;;;;;;47.80;20.33;;;;;;;6.40;71.05;99195.63;6000976;23;20230;-82
2022/01/18 08:10:52;;;;;;;41.30;18.98;;;;;;;6.41;71.22;99203.22;6003507;23;20218;-83
2022/01/18 08:13:17;;;;;;;34.33;17.20;;;;;;;6.43;70.90;99200.47;6017302;23;20282;-82
2022/01/18 08:15:44;;;;;;;34.35;17.17;;;;;;;6.46;71.09;99210.47;6002873;23;20593;-83
2022/01/18 08:18:12;;;;;;;48.85;15.48;;;;;;;6.47;70.97;99204.31;6004010;23;20232;-83
2022/01/18 08:20:37;;;;;;;67.70;21.13;;;;;;;6.52;71.09;99208.03;5973877;23;20060;-83
2022/01/18 08:23:03;;;;;;;28.75;15.35;;;;;;;6.59;71.30;99209.94;6008728;23;20597;-82
2022/01/18 08:25:30;;;;;;;33.13;14.93;;;;;;;6.60;71.57;99203.78;5999476;23;20249;-83
2022/01/18 08:27:55;;;;;;;29.60;15.07;;;;;;;6.65;71.18;99217.84;5975825;23;20147;-83
2022/01/18 08:30:21;;;;;;;33.35;13.73;;;;;;;6.74;71.35;99205.69;6008853;23;20585;-82
2022/01/18 08:32:48;;;;;;;30.33;13.88;;;;;;;6.71;71.42;99206.81;6033211;23;20170;-83
2022/01/18 08:35:13;;;;;;;37.63;14.20;;;;;;;6.78;71.12;99213.91;5975115;23;20590;-83
2022/01/18 08:37:39;;;;;;;36.03;17.05;;;;;;;6.82;71.35;99213.41;6033006;23;20206;-82
2022/01/18 08:40:05;;;;;;;36.90;17.42;;;;;;;6.86;71.11;99211.28;6032381;23;20522;-82
2022/01/18 08:42:31;;;;;;;34.03;16.50;;;;;;;6.92;71.25;99214.00;5975227;23;20261;-83
2022/01/18 08:44:56;;;;;;;31.15;16.13;;;;;;;7.01;70.60;99216.53;5999351;23;20254;-83
2022/01/18 08:47:23;;;;;;;32.63;14.85;;;;;;;6.98;70.96;99227.25;5975163;23;20148;-83
2022/01/18 08:49:48;;;;;;;36.38;16.05;;;;;;;6.93;71.10;99228.56;6000197;23;20287;-83
2022/01/18 08:52:14;;;;;;;30.33;14.40;;;;;;;6.92;71.34;99226.94;6008528;23;20339;-83
2022/01/18 08:54:40;;;;;;;27.13;13.23;;;;;;;6.94;71.33;99222.41;5999347;23;20206;-82
2022/01/18 08:57:05;;;;;;;28.17;13.95;;;;;;;7.00;71.15;99226.09;6032696;23;20347;-83
2022/01/18 08:59:35;;;;;;;29.23;14.10;;;;;;;6.96;71.08;99222.25;6008155;23;20261;-83
2022/01/18 09:02:01;;;;;;;30.00;15.05;;;;;;;6.93;71.17;99223.38;6008461;23;20265;-83
2022/01/18 09:04:26;;;;;;;31.85;14.32;;;;;;;6.99;71.12;99229.69;6008323;23;20258;-83
2022/01/18 09:06:52;;;;;;;27.80;14.50;;;;;;;6.96;71.34;99219.66;5999207;23;20519;-82
2022/01/18 09:09:19;;;;;;;33.85;15.82;;;;;;;7.03;71.13;99222.38;6007832;23;20275;-82
2022/01/18 09:11:45;;;;;;;32.08;14.55;;;;;;;7.02;71.68;99229.31;5998246;23;20182;-83
2022/01/18 09:14:12;;;;;;;27.70;13.25;;;;;;;7.06;71.46;99232.38;5998681;23;20265;-82
2022/01/18 09:16:37;;;;;;;36.28;15.85;;;;;;;7.08;71.38;99233.03;5997859;23;20178;-82
2022/01/18 09:19:03;;;;;;;26.23;13.48;;;;;;;7.08;71.22;99227.84;6008007;23;20094;-83
2022/01/18 09:21:30;;;;;;;51.30;18.92;;;;;;;7.09;71.40;99237.22;5993618;23;20177;-83
2022/01/18 09:23:55;;;;;;;40.47;17.15;;;;;;;7.07;71.48;99234.00;6004056;23;20140;-82
2022/01/18 09:26:21;;;;;;;52.20;19.85;;;;;;;7.02;71.06;99231.09;5993776;23;20276;-83
2022/01/18 09:28:46;;;;;;;78.45;27.00;;;;;;;6.96;71.21;99235.19;6017695;23;20190;-83
2022/01/18 09:31:12;;;;;;;48.03;20.35;;;;;;;6.94;71.25;99237.16;6027782;23;20229;-82
2022/01/18 09:33:37;;;;;;;42.63;20.52;;;;;;;6.94;71.67;99237.94;5993751;23;20155;-82
2022/01/18 09:36:03;;;;;;;51.88;24.67;;;;;;;6.94;71.06;99245.72;6018052;23;20190;-82
2022/01/18 09:38:28;;;;;;;51.88;24.20;;;;;;;6.88;71.82;99248.97;6003008;23;20267;-82
2022/01/18 09:40:54;;;;;;;69.55;23.95;;;;;;;6.89;71.76;99242.81;6003290;23;20657;-82
2022/01/18 09:43:20;;;;;;;42.33;20.30;;;;;;;7.01;71.23;99247.59;5970011;23;20315;-82
2022/01/18 09:45:45;;;;;;;59.70;19.83;;;;;;;7.00;71.18;99253.78;6017499;23;20252;-82
2022/01/18 09:48:12;;;;;;;54.80;20.23;;;;;;;7.01;71.05;99247.59;6017418;23;20226;-82
2022/01/18 09:50:39;;;;;;;55.22;21.27;;;;;;;6.94;71.36;99248.31;6026763;23;20177;-82
2022/01/18 09:53:07;;;;;;;42.13;17.83;;;;;;;7.03;71.55;99256.03;6027350;23;20175;-82
2022/01/18 09:55:33;;;;;;;44.08;17.02;;;;;;;7.08;71.56;99258.94;5993364;23;20190;-82
2022/01/18 09:58:01;;;;;;;46.10;18.48;;;;;;;7.09;71.47;99255.34;6026807;23;20206;-81
2022/01/18 10:00:28;;;;;;;41.05;16.50;;;;;;;7.07;71.64;99252.13;6026891;23;20139;-82
2022/01/18 10:02:54;;;;;;;37.35;16.38;;;;;;;7.03;71.97;99249.06;6017783;23;20229;-83
2022/01/18 10:05:20;;;;;;;42.08;16.35;;;;;;;7.04;71.89;99249.88;5969854;23;20638;-83
2022/01/18 10:08:05;;;;;;;38.10;15.95;;;;;;;7.05;72.35;99251.50;5993809;23;20227;-82
2022/01/18 10:10:38;;;;;;;36.95;15.13;;;;;;;7.17;72.22;99260.50;5993642;23;20559;-82
2022/01/18 10:13:04;;;;;;;46.63;16.52;;;;;;;7.28;72.28;99259.28;6015708;23;20262;-83
2022/01/18 10:15:29;;;;;;;42.92;15.90;;;;;;;7.31;72.35;99259.75;6002560;23;20232;-82
2022/01/18 10:18:06;;;;;;;47.30;15.80;;;;;;;7.18;71.96;99269.88;5993425;23;20230;-82
2022/01/18 10:20:33;;;;;;;36.63;14.95;;;;;;;7.35;72.36;99256.81;5995967;23;20109;-82
2022/01/18 10:23:00;;;;;;;46.33;16.42;;;;;;;7.37;71.97;99257.44;5975284;23;20559;-82
2022/01/18 10:25:33;;;;;;;39.50;16.15;;;;;;;7.37;72.23;99257.44;6008124;23;20257;-82
2022/01/18 10:27:59;;;;;;;36.20;14.30;;;;;;;7.53;71.96;99256.56;6008389;23;20273;-82
2022/01/18 10:30:39;;;;;;;42.40;16.00;;;;;;;7.45;71.96;99252.22;6007975;23;20170;-82
2022/01/18 10:33:13;;;;;;;34.95;15.25;;;;;;;7.59;71.77;99256.66;6030604;23;20185;-82
2022/01/18 10:36:12;;;;;;;34.28;14.85;;;;;;;7.39;71.87;99253.72;5975192;23;20336;-82
2022/01/18 10:38:48;;;;;;;35.90;14.15;;;;;;;7.46;72.21;99251.25;6032169;23;20246;-82
2022/01/18 10:41:33;;;;;;;38.85;13.60;;;;;;;7.55;72.01;99245.00;6032513;23;20442;-82
2022/01/18 10:44:13;;;;;;;36.95;13.95;;;;;;;7.44;72.00;99242.84;5974718;23;20207;-82
2022/01/18 10:46:47;;;;;;;36.58;13.95;;;;;;;7.66;71.80;99242.03;6008280;23;20190;-82
2022/01/18 10:49:25;;;;;;;33.22;12.93;;;;;;;7.66;71.79;99226.47;5974341;23;20213;-83
2022/01/18 10:51:57;;;;;;;30.85;13.20;;;;;;;7.75;72.03;99234.19;6007734;23;20610;-82
2022/01/18 10:54:33;;;;;;;33.47;13.30;;;;;;;7.51;72.69;99228.22;6032800;23;20186;-83
2022/01/18 10:57:02;;;;;;;30.23;12.10;;;;;;;7.85;72.31;99220.00;6031719;23;20158;-82
2022/01/18 10:59:29;;;;;;;26.40;11.65;;;;;;;7.87;72.15;99207.66;5997992;23;20265;-83
2022/01/18 11:02:42;;;;;;;26.83;10.38;;;;;;;7.79;72.25;99219.88;5975181;23;20261;-83
2022/01/18 11:05:29;;;;;;;25.10;10.45;;;;;;;7.73;72.61;99212.78;5884415;23;20233;-83
2022/01/18 11:07:55;;;;;;;35.30;12.80;;;;;;;8.02;71.72;99212.88;5884144;23;20263;-82
2022/01/18 11:10:24;;;;;;;54.35;28.60;;;;;;;7.91;71.38;99208.09;5916116;23;20197;-84
2022/01/18 11:13:10;;;;;;;30.17;13.70;;;;;;;7.88;71.98;99206.69;5918379;23;20348;-83
2022/01/18 11:15:39;;;;;;;85.30;36.13;;;;;;;8.19;72.08;99202.31;5911491;23;20357;-83
2022/01/18 11:18:07;;;;;;;22.90;10.00;;;;;;;7.93;72.01;99198.34;5863629;23;20202;-82
2022/01/18 11:20:36;;;;;;;26.73;10.77;;;;;;;8.04;71.54;99191.94;5919259;23;20160;-82
2022/01/18 11:23:03;;;;;;;22.52;10.18;;;;;;;7.95;71.15;99173.06;5886530;23;20469;-83
2022/01/18 11:25:30;;;;;;;45.38;26.25;;;;;;;8.16;70.90;99174.13;5886945;23;20198;-83
2022/01/18 11:27:57;;;;;;;15.20;7.70;;;;;;;7.90;71.19;99183.16;5885430;23;20700;-83
2022/01/18 11:30:25;;;;;;;17.65;7.47;;;;;;;7.91;70.81;99186.56;5886440;23;20576;-83
2022/01/18 11:32:52;;;;;;;14.35;6.72;;;;;;;7.82;70.43;99183.22;5886014;23;20205;-83
2022/01/18 11:35:20;;;;;;;18.90;9.18;;;;;;;7.82;70.91;99183.22;5915839;23;20230;-83
2022/01/18 11:38:02;;;;;;;14.20;6.60;;;;;;;7.56;70.55;99179.25;6034328;23;20140;-83
2022/01/18 11:40:44;;;;;;;11.32;5.50;;;;;;;7.67;70.86;99176.22;5977404;23;20229;-83
2022/01/18 11:43:10;;;;;;;17.77;6.75;;;;;;;7.97;70.75;99171.09;5977053;23;20594;-83
2022/01/18 11:45:39;;;;;;;16.95;6.70;;;;;;;8.02;70.22;99165.34;6010666;23;20253;-83
2022/01/18 11:48:06;;;;;;;16.83;7.05;;;;;;;8.00;70.49;99164.72;5999446;23;20194;-83
2022/01/18 11:50:38;;;;;;;14.75;4.97;;;;;;;7.80;70.55;99173.03;6024432;23;20195;-84
2022/01/18 11:53:17;;;;;;;11.13;4.93;;;;;;;7.85;70.39;99169.91;5977048;23;20308;-84
2022/01/18 11:55:45;;;;;;;9.18;4.45;;;;;;;7.92;69.46;99163.03;6024685;23;20435;-85
2022/01/18 11:58:14;;;;;;;10.95;4.95;;;;;;;8.01;69.33;99164.53;6034889;23;20178;-83
2022/01/18 12:00:49;;;;;;;9.13;3.92;;;;;;;8.04;69.16;99166.78;5977331;23;20273;-82
2022/01/18 12:03:21;;;;;;;7.07;4.20;;;;;;;8.10;69.20;99160.06;6034520;23;20261;-82
2022/01/18 12:05:46;;;;;;;7.15;2.80;;;;;;;8.11;68.56;99146.13;6000533;23;20159;-82
2022/01/18 12:08:28;;;;;;;9.25;3.53;;;;;;;7.88;69.00;99153.97;5976604;23;20234;-83
2022/01/18 12:10:53;;;;;;;4.32;2.35;;;;;;;7.98;69.24;99151.94;6034768;23;20170;-84
2022/01/18 12:13:39;;;;;;;4.38;2.55;;;;;;;7.93;68.56;99150.84;6011422;23;20477;-84
2022/01/18 12:16:18;;;;;;;6.22;3.05;;;;;;;8.03;68.29;99148.81;6002161;23;20578;-83
2022/01/18 12:19:02;;;;;;;4.95;2.80;;;;;;;8.11;68.43;99147.94;6034919;23;20183;-84
2022/01/18 12:21:30;;;;;;;4.35;1.73;;;;;;;8.14;67.79;99150.13;6003705;23;20655;-83
2022/01/18 12:23:58;;;;;;;2.85;1.77;;;;;;;8.23;67.16;99138.69;6005849;23;20595;-83
2022/01/18 12:26:32;;;;;;;3.55;1.75;;;;;;;8.21;66.81;99144.06;5981767;23;20234;-83
2022/01/18 12:34:30;;;;;;;4.68;2.15;;;;;;;8.02;67.52;99136.81;5996054;23;20237;-83
2022/01/18 12:37:16;;;;;;;3.22;1.15;;;;;;;7.71;67.19;99134.38;5996064;23;20183;-84
2022/01/18 12:39:51;;;;;;;3.83;1.70;;;;;;;8.01;67.26;99138.59;6032159;23;20606;-83
2022/01/18 12:45:30;;;;;;;1.02;0.60;;;;;;;7.66;66.20;99140.13;5955897;23;20596;-84
2022/01/18 12:48:00;;;;;;;1.40;0.93;;;;;;;7.94;66.29;99129.13;6005737;23;20255;-83
2022/01/18 12:50:37;;;;;;;1.98;1.10;;;;;;;8.00;65.87;99123.22;5972915;23;20192;-84
2022/01/18 12:53:18;;;;;;;1.75;0.70;;;;;;;7.86;65.28;99122.22;6005976;23;20224;-84
2022/01/18 12:55:57;;;;;;;1.05;0.40;;;;;;;7.73;66.15;99128.06;5950293;23;20207;-84
2022/01/18 12:58:23;;;;;;;2.60;1.02;;;;;;;7.86;65.87;99132.59;6007230;23;20650;-83
2022/01/18 13:01:20;;;;;;;0.60;0.40;;;;;;;7.90;64.97;99120.91;5996852;23;20235;-84
2022/01/18 13:03:48;;;;;;;0.70;0.30;;;;;;;7.74;64.07;99119.28;5978294;23;20152;-84
2022/01/18 13:06:19;;;;;;;1.33;0.45;;;;;;;7.74;64.72;99124.47;5943373;23;20267;-84
2022/01/18 13:08:44;;;;;;;0.93;0.50;;;;;;;7.59;65.15;99124.47;5973500;23;20228;-85
2022/01/18 13:11:11;;;;;;;1.77;0.20;;;;;;;7.52;65.14;99118.34;6033679;23;20266;-86
2022/01/18 13:13:37;;;;;;;1.10;0.40;;;;;;;7.79;65.19;99122.13;5949817;23;20179;-83
2022/01/18 13:22:54;;;;;;;1.05;0.60;;;;;;;7.76;65.18;99111.31;5983549;23;20656;-85
2022/01/18 13:24:50;;;;;;;1.83;0.90;;;;;;;8.00;64.98;99113.66;5995955;23;20441;-84
2022/01/18 13:29:48;;;;;;;0.98;0.40;;;;;;;7.78;65.01;99110.16;6003700;23;20190;-85
2022/01/18 13:32:17;;;;;;;1.33;0.93;;;;;;;8.20;64.80;99119.09;6002576;23;20699;-85
2022/01/18 13:34:47;;;;;;;1.15;0.70;;;;;;;8.21;64.61;99115.53;6012380;23;20140;-85
2022/01/18 13:37:15;;;;;;;1.25;0.63;;;;;;;8.29;64.25;99114.59;5979539;23;20243;-85